AirNav   Everest Fuels
 
 412 users online  

37WI Docken Field Airport
Mount Horeb, Wisconsin, USA

GOING TO MOUNT HOREB?


FAA INFORMATION EFFECTIVE 22 APRIL 2021

Location

FAA Identifier: 37WI
Lat/Long: 42-59-27.9900N 089-45-12.4420W
42-59.466500N 089-45.207367W
42.9911083,-89.7534561
(estimated)
Elevation: 1230 ft. / 375 m (estimated)
Variation: 00E (1985)
From city: 2 miles SW of MOUNT HOREB, WI
Time zone: UTC -5 (UTC -6 during Standard Time)
Zip code: 53572

Airport Operations

Airport use: Private use. Permission required prior to landing
Activation date: 11/1978
Control tower: no
ARTCC: CHICAGO CENTER
FSS: GREEN BAY FLIGHT SERVICE STATION
Attendance: UNATNDD
Segmented circle: no

Airport Communications

WX AWOS-3 at C29 (12 nm NE): 118.675 (608-833-1686)

Nearby radio navigation aids

VOR radial/distance  VOR name  Freq  Var
MSNr240/20.3MADISON VORTAC108.6003E
DLLr176/33.6DELLS VORTAC117.0003E
JVLr309/38.6JANESVILLE VOR/DME114.3003E

Airport Services

Runway Information

Runway 15/33

Dimensions: 1800 x 75 ft. / 549 x 23 m
Surface: turf
RUNWAY 15  RUNWAY 33
Traffic pattern: leftleft

Airport Ownership and Management from official FAA records

Ownership: Privately-owned
Owner: ORVILLE DOCKEN
2513 SAND ROCK RD RT 2
MOUNT HOREB, WI 53572
Phone 608-437-3120
Manager: ORVILLE DOCKEN
2513 SAND ROCK RD RT 2
MOUNT HOREB, WI 53572
Phone 608-437-3120

Airport Operational Statistics

Aircraft based on the field: 1
Single engine airplanes: 1
    

Additional Remarks

FOR CD CTC CHICAGO ARTCC AT 630-906-8921.

Instrument Procedures

There are no published instrument procedures at 37WI.

Some nearby airports with instrument procedures:

C29 - Middleton Municipal Airport - Morey Field (12 nm NE)
91C - Sauk-Prairie Airport (18 nm N)
KMSN - Dane County Regional Airport-Truax Field (20 nm NE)
KMRJ - Iowa County Airport (22 nm W)
KLNR - Tri-County Regional Airport (23 nm NW)
 
Loc | Ops | Rwys | IFR | FBO | Links
Com | Nav | Svcs | Stats | Notes
Area around 37WI (Docken Field Airport)
 
Road maps at: MapQuest Bing Google
 
Aerial photo
No photo
 
Sectional chart

 
Airport distance calculator
Flying to Docken Field Airport? Find the distance to fly.

From to 37WI

Sunrise and sunset
Times for 09-May-2021
 Local
(UTC-5)
 Zulu
(UTC)
Morning civil twilight05:1110:11
Sunrise05:4310:43
Sunset20:0801:08
Evening civil twilight20:3901:39

Current date and time
Zulu (UTC)  09-May-2021 06:55:25
Local (UTC-5)  09-May-2021 01:55:25
 
METAR
KC29 
12nm NE 
090635Z AUTO 00000KT 10SM CLR 07/03 A3001 RMK AO1 T00670025
KMSN 
20nm NE 
090553Z AUTO 16004KT 10SM CLR 07/00 A3001 RMK AO2 SLP167 T00720000 10106 20072 401221011 58008
KMRJ 
21nm W 
090635Z AUTO 00000KT 10SM BKN010 OVC120 06/03 A3000 RMK AO2
KLNR 
23nm NW 
090556Z AUTO 11003KT 10SM CLR 07/03 A3002 RMK AO2 SLP163 T00720033 10117 20072 401281017 55007
TAF
KMSN 
20nm NE 
090520Z 0906/1006 15005KT P6SM OVC100 FM091400 05010G18KT P6SM BKN150 FM100000 04005KT P6SM BKN070 FM100400 09006KT P6SM BKN040
NOTAMs
Click for the latest NOTAMs
NOTAMs are issued by the DoD/FAA and will open in a separate window not controlled by AirNav.

 

 
 

Would you like to see your business listed on this page?

 If your business provides an interesting product or service to pilots, flight crews, aircraft, or users of the Docken Field Airport, you should consider listing it here.  To start the listing process, click on the button below
 
Add a business
 

Other Pages about Docken Field Airport

Update a link
 
Copyright © AirNav, LLC. All rights reserved. Privacy Policy  Contact